createdAt,value
2018-07-26T04:03:50.215Z,17.40
2018-07-26T04:04:36.726Z,17.70
2018-07-26T04:05:35.217Z,17.86
2018-07-26T04:06:35.119Z,18.11
2018-07-26T04:07:34.722Z,18.04
2018-07-26T04:08:35.917Z,18.19
2018-07-26T04:09:34.911Z,18.36
2018-07-26T04:10:35.289Z,18.49
2018-07-26T04:11:35.370Z,18.66
2018-07-26T04:12:35.041Z,18.71
2018-07-26T04:13:35.109Z,18.76
2018-07-26T04:14:35.422Z,18.79
2018-07-26T04:15:35.293Z,18.86
2018-07-26T04:16:35.238Z,18.89
2018-07-26T04:17:35.246Z,18.90
2018-07-26T04:18:36.877Z,18.91
2018-07-26T04:19:35.778Z,18.84
2018-07-26T04:20:36.953Z,18.86
2018-07-26T04:21:36.631Z,18.90
2018-07-26T04:22:35.304Z,18.79
2018-07-26T04:23:35.068Z,18.89
2018-07-26T04:24:35.054Z,18.79
2018-07-26T04:25:35.233Z,18.82
2018-07-26T04:26:35.119Z,18.86
2018-07-26T04:27:36.390Z,18.78
2018-07-26T04:28:35.033Z,18.82
2018-07-26T04:29:35.440Z,18.87
2018-07-26T04:30:35.280Z,18.94
2018-07-26T04:31:35.935Z,19.02
2018-07-26T04:32:34.493Z,19.13
2018-07-26T04:33:34.743Z,19.09
2018-07-26T04:34:34.993Z,19.20
2018-07-26T04:35:34.937Z,19.20
2018-07-26T04:36:34.957Z,19.28
2018-07-26T04:37:35.557Z,19.16
2018-07-26T04:38:35.066Z,19.21
2018-07-26T04:39:34.958Z,19.21
2018-07-26T04:40:34.347Z,19.09
2018-07-26T04:41:34.392Z,18.94
2018-07-26T04:42:34.402Z,18.87
2018-07-26T04:43:34.451Z,18.93
2018-07-26T04:44:34.494Z,18.86
2018-07-26T04:45:34.309Z,18.99
2018-07-26T04:46:34.356Z,19.05
2018-07-26T04:47:34.452Z,18.93
2018-07-26T04:48:34.775Z,18.87
2018-07-26T04:49:34.315Z,18.90
2018-07-26T04:50:34.902Z,18.90
2018-07-26T04:51:34.227Z,18.97
2018-07-26T04:52:34.286Z,19.05
2018-07-26T04:53:34.698Z,19.06
2018-07-26T04:54:34.461Z,19.12
2018-07-26T04:55:34.412Z,19.07
2018-07-26T04:56:34.491Z,19.15
2018-07-26T04:57:34.473Z,19.20
2018-07-26T04:58:34.438Z,19.35
2018-07-26T04:59:34.456Z,19.47
2018-07-26T05:00:34.389Z,19.46
2018-07-26T05:01:34.403Z,19.49
2018-07-26T05:02:35.276Z,19.60
2018-07-26T05:03:34.370Z,19.64
2018-07-26T05:04:34.223Z,19.68
2018-07-26T05:05:34.572Z,19.78
2018-07-26T05:06:34.873Z,19.85
2018-07-26T05:07:35.060Z,19.82
2018-07-26T05:08:35.227Z,19.87
2018-07-26T05:09:34.272Z,19.87
2018-07-26T05:10:34.511Z,19.80
2018-07-26T05:11:34.710Z,20.00
2018-07-26T05:12:34.513Z,20.00
2018-07-26T05:13:34.832Z,20.08
2018-07-26T05:14:34.272Z,20.46
2018-07-26T05:15:34.366Z,20.78
2018-07-26T05:16:34.610Z,21.06
2018-07-26T05:17:34.001Z,21.15
2018-07-26T05:18:34.407Z,21.05
2018-07-26T05:19:34.938Z,21.52
2018-07-26T05:20:34.046Z,21.98
2018-07-26T05:21:36.336Z,21.42
2018-07-26T05:22:33.924Z,21.16
2018-07-26T05:23:35.805Z,21.09
2018-07-26T05:24:35.496Z,21.03
2018-07-26T05:25:34.701Z,21.03
2018-07-26T05:26:34.090Z,20.96
2018-07-26T05:27:34.548Z,20.96
2018-07-26T05:28:34.221Z,20.94
2018-07-26T05:29:35.057Z,21.08
2018-07-26T05:30:34.783Z,21.01
2018-07-26T05:31:33.903Z,20.96
2018-07-26T05:32:34.850Z,21.12
2018-07-26T05:33:34.376Z,21.26
2018-07-26T05:34:34.052Z,21.33
2018-07-26T05:35:33.772Z,21.24
2018-07-26T05:36:33.874Z,21.38
2018-07-26T05:37:34.780Z,21.59
2018-07-26T05:38:34.261Z,21.67
2018-07-26T05:39:34.278Z,21.56
2018-07-26T05:40:34.153Z,21.40
2018-07-26T05:41:34.345Z,21.40
2018-07-26T05:42:33.809Z,21.40
2018-07-26T05:43:33.587Z,21.58
2018-07-26T05:44:38.754Z,21.59
2018-07-26T05:45:38.603Z,21.71
2018-07-26T05:46:37.151Z,21.73
2018-07-26T05:47:46.045Z,21.79
2018-07-26T05:48:40.329Z,21.93
2018-07-26T05:49:57.442Z,21.89
2018-07-26T05:50:36.927Z,21.91
2018-07-26T05:51:39.579Z,21.83
2018-07-26T05:52:37.469Z,21.94
2018-07-26T05:53:37.543Z,22.19
2018-07-26T05:54:48.655Z,22.49
2018-07-26T05:55:37.847Z,22.78
2018-07-26T05:56:36.676Z,23.18
2018-07-26T05:57:38.234Z,23.69
2018-07-26T05:58:40.393Z,24.34
2018-07-26T05:59:41.828Z,24.67
2018-07-26T06:00:39.439Z,25.04
2018-07-26T06:01:36.448Z,25.05
2018-07-26T06:02:40.535Z,25.07
2018-07-26T06:03:46.659Z,25.11
2018-07-26T06:04:58.581Z,25.61
2018-07-26T06:05:47.201Z,25.90
2018-07-26T06:06:43.663Z,26.42
2018-07-26T06:07:51.796Z,27.01
2018-07-26T06:08:52.067Z,26.94
2018-07-26T06:09:51.230Z,27.02
2018-07-26T06:11:11.467Z,27.21
2018-07-26T06:11:36.789Z,27.45
2018-07-26T06:12:39.347Z,27.74
2018-07-26T06:13:40.328Z,27.84
2018-07-26T06:14:35.306Z,28.11
2018-07-26T06:15:38.609Z,28.02
2018-07-26T06:16:37.566Z,28.45
2018-07-26T06:17:37.296Z,28.77
2018-07-26T06:18:38.568Z,29.33
2018-07-26T06:19:44.790Z,29.55
2018-07-26T06:20:37.836Z,29.84
2018-07-26T06:21:34.265Z,29.97
2018-07-26T06:22:33.475Z,29.73
2018-07-26T06:23:33.139Z,29.39
2018-07-26T06:24:33.179Z,29.57
2018-07-26T06:25:33.243Z,29.62
2018-07-26T06:26:33.226Z,29.66
2018-07-26T06:27:33.169Z,29.70
2018-07-26T06:28:33.162Z,30.01
2018-07-26T06:29:33.170Z,30.03
2018-07-26T06:30:33.167Z,29.54
2018-07-26T06:31:33.107Z,29.08
2018-07-26T06:32:33.122Z,28.91
2018-07-26T06:33:33.239Z,27.95
2018-07-26T06:34:33.084Z,27.55
2018-07-26T06:35:33.110Z,27.66
2018-07-26T06:36:33.059Z,27.95
2018-07-26T06:37:33.133Z,28.50
2018-07-26T06:38:33.071Z,28.77
2018-07-26T06:39:33.118Z,28.79
2018-07-26T06:40:33.265Z,28.77
2018-07-26T06:41:32.989Z,29.21
2018-07-26T06:42:32.993Z,29.29
2018-07-26T06:43:33.049Z,29.78
2018-07-26T06:44:32.981Z,29.45
2018-07-26T06:45:33.027Z,28.88
2018-07-26T06:46:33.142Z,28.40
2018-07-26T06:47:33.424Z,27.84
2018-07-26T06:48:32.938Z,28.24
2018-07-26T06:49:32.945Z,28.67
2018-07-26T06:50:32.885Z,28.88
2018-07-26T06:51:32.917Z,29.02
2018-07-26T06:52:32.956Z,28.55
2018-07-26T06:53:32.916Z,28.74
2018-07-26T06:54:32.933Z,29.05
2018-07-26T06:55:32.970Z,28.61
2018-07-26T06:56:32.985Z,28.50
2018-07-26T06:57:32.898Z,28.76
2018-07-26T06:58:32.878Z,28.52
2018-07-26T06:59:32.938Z,28.36
2018-07-26T07:00:33.036Z,27.86
2018-07-26T07:01:32.869Z,27.87
2018-07-26T07:02:33.582Z,28.21
2018-07-26T07:03:32.911Z,28.20
2018-07-26T07:04:32.855Z,28.42
2018-07-26T07:05:32.915Z,28.77
2018-07-26T07:06:32.893Z,29.25
2018-07-26T07:07:32.723Z,29.26
2018-07-26T07:08:32.842Z,29.81
2018-07-26T07:09:32.870Z,30.28
2018-07-26T07:10:32.897Z,30.66
2018-07-26T07:11:32.776Z,30.79
2018-07-26T07:12:32.697Z,30.79
2018-07-26T07:13:32.734Z,30.75
2018-07-26T07:14:32.688Z,30.70
2018-07-26T07:15:32.855Z,31.18
2018-07-26T07:16:32.756Z,31.65
2018-07-26T07:17:32.685Z,31.74
2018-07-26T07:18:32.629Z,31.90
2018-07-26T07:19:32.740Z,32.10
2018-07-26T07:20:32.757Z,31.71
2018-07-26T07:21:32.661Z,31.91
2018-07-26T07:22:32.546Z,31.99
2018-07-26T07:23:32.741Z,31.99
2018-07-26T07:24:32.612Z,32.47
2018-07-26T07:25:32.559Z,32.34
2018-07-26T07:26:32.642Z,32.21
2018-07-26T07:27:32.602Z,32.50
2018-07-26T07:28:32.516Z,32.59
2018-07-26T07:29:32.652Z,32.56
2018-07-26T07:30:32.570Z,32.51
2018-07-26T07:31:32.767Z,32.66
2018-07-26T07:32:32.444Z,32.36
2018-07-26T07:33:32.485Z,32.12
2018-07-26T07:34:32.469Z,32.40
2018-07-26T07:35:32.456Z,32.36
2018-07-26T07:36:33.807Z,32.34
2018-07-26T07:37:32.400Z,32.28
2018-07-26T07:38:32.406Z,32.31
2018-07-26T07:39:32.461Z,32.84
2018-07-26T07:40:32.451Z,32.93
2018-07-26T07:41:33.109Z,33.21
2018-07-26T07:42:44.895Z,33.07
2018-07-26T07:43:32.487Z,33.17
2018-07-26T07:44:32.344Z,33.18
2018-07-26T07:45:32.979Z,32.78
2018-07-26T07:46:32.389Z,32.68
2018-07-26T07:47:32.916Z,32.84
2018-07-26T07:48:32.549Z,32.98
2018-07-26T07:49:32.533Z,33.35
2018-07-26T07:50:32.727Z,33.44
2018-07-26T07:51:32.385Z,33.14
2018-07-26T07:52:32.406Z,32.91
2018-07-26T07:53:32.371Z,33.12
2018-07-26T07:54:32.388Z,33.18
2018-07-26T07:55:32.306Z,33.53
2018-07-26T07:56:32.351Z,33.86
2018-07-26T07:57:32.276Z,33.70
2018-07-26T07:58:32.431Z,33.44
2018-07-26T07:59:32.374Z,33.37
2018-07-26T08:00:32.191Z,33.29
2018-07-26T08:01:32.420Z,33.20
2018-07-26T08:02:32.598Z,33.66
2018-07-26T08:03:32.165Z,33.75
2018-07-26T08:04:32.206Z,33.82
2018-07-26T08:05:32.140Z,33.87
2018-07-26T08:06:32.212Z,33.28
2018-07-26T08:07:32.146Z,32.93
2018-07-26T08:08:32.105Z,32.80
2018-07-26T08:09:32.199Z,32.72
2018-07-26T08:10:32.123Z,32.80
2018-07-26T08:11:32.120Z,32.99
2018-07-26T08:12:32.236Z,33.47
2018-07-26T08:13:32.168Z,33.78
2018-07-26T08:14:32.238Z,33.89
2018-07-26T08:15:32.146Z,34.14
2018-07-26T08:16:32.156Z,34.50
2018-07-26T08:17:32.119Z,34.06
2018-07-26T08:18:32.308Z,33.49
2018-07-26T08:19:32.313Z,33.26
2018-07-26T08:20:32.081Z,33.14
2018-07-26T08:21:32.039Z,33.26
2018-07-26T08:22:32.237Z,33.12
2018-07-26T08:23:32.018Z,33.55
2018-07-26T08:24:32.091Z,33.90
2018-07-26T08:25:32.102Z,33.63
2018-07-26T08:26:32.271Z,33.24
2018-07-26T08:27:32.022Z,33.00
2018-07-26T08:28:31.826Z,32.77
2018-07-26T08:29:31.976Z,32.31
2018-07-26T08:30:32.055Z,32.46
2018-07-26T08:31:32.254Z,32.80
2018-07-26T08:32:32.385Z,33.12
2018-07-26T08:33:31.941Z,33.75
2018-07-26T08:34:31.993Z,34.14
2018-07-26T08:35:31.909Z,34.27
2018-07-26T08:36:31.892Z,34.27
2018-07-26T08:37:31.983Z,34.19
2018-07-26T08:38:31.940Z,33.70
2018-07-26T08:39:32.020Z,33.92
2018-07-26T08:40:31.898Z,33.79
2018-07-26T08:41:31.824Z,34.16
2018-07-26T08:42:31.909Z,34.18
2018-07-26T08:43:31.950Z,34.46
2018-07-26T08:44:31.748Z,34.46
2018-07-26T08:45:31.977Z,34.63
2018-07-26T08:46:31.816Z,34.40
2018-07-26T08:47:31.982Z,34.26
2018-07-26T08:48:31.954Z,34.34
2018-07-26T08:49:31.871Z,34.26
2018-07-26T08:50:31.891Z,33.84
2018-07-26T08:51:32.054Z,34.08
2018-07-26T08:52:31.913Z,33.84
2018-07-26T08:53:32.291Z,33.70
2018-07-26T08:54:31.939Z,34.14
2018-07-26T08:55:31.747Z,34.31
2018-07-26T08:56:31.708Z,34.14
2018-07-26T08:57:32.193Z,33.77
2018-07-26T08:58:31.892Z,34.05
2018-07-26T08:59:31.598Z,34.16
2018-07-26T09:00:31.679Z,34.40
2018-07-26T09:01:31.862Z,34.86
2018-07-26T09:02:32.061Z,35.15
2018-07-26T09:03:31.894Z,35.34
2018-07-26T09:04:31.835Z,35.54
2018-07-26T09:05:31.891Z,35.15
2018-07-26T09:06:31.975Z,35.13
2018-07-26T09:07:31.656Z,35.17
2018-07-26T09:08:31.675Z,35.39
2018-07-26T09:09:31.650Z,35.55
2018-07-26T09:10:31.712Z,35.65
2018-07-26T09:11:31.507Z,35.80
2018-07-26T09:12:31.909Z,36.23
2018-07-26T09:13:31.590Z,36.35
2018-07-26T09:14:31.871Z,36.16
2018-07-26T09:15:31.887Z,35.37
2018-07-26T09:16:31.699Z,35.21
2018-07-26T09:17:31.731Z,35.22
2018-07-26T09:18:31.843Z,35.73
2018-07-26T09:19:31.537Z,35.73
2018-07-26T09:20:31.597Z,35.58
2018-07-26T09:21:31.451Z,35.09
2018-07-26T09:22:31.579Z,34.81
2018-07-26T09:23:31.762Z,34.90
2018-07-26T09:24:31.468Z,35.15
2018-07-26T09:25:31.496Z,35.58
2018-07-26T09:26:31.399Z,35.83
2018-07-26T09:27:31.584Z,35.95
2018-07-26T09:28:31.366Z,36.33
2018-07-26T09:29:31.276Z,36.16
2018-07-26T09:30:31.529Z,36.18
2018-07-26T09:31:31.463Z,36.38
2018-07-26T09:32:31.548Z,36.30
2018-07-26T09:33:31.396Z,35.80
2018-07-26T09:34:31.543Z,36.18
2018-07-26T09:35:31.351Z,36.49
2018-07-26T09:36:31.244Z,36.18
2018-07-26T09:37:31.289Z,35.89
2018-07-26T09:38:31.373Z,35.87
2018-07-26T09:39:31.308Z,36.22
2018-07-26T09:40:31.377Z,36.19
2018-07-26T09:41:31.236Z,36.15
2018-07-26T09:42:31.344Z,35.87
2018-07-26T09:43:31.314Z,36.25
2018-07-26T09:44:31.224Z,35.89
2018-07-26T09:45:31.114Z,35.68
2018-07-26T09:46:31.146Z,35.15
2018-07-26T09:47:31.216Z,35.47
2018-07-26T09:48:31.136Z,35.96
2018-07-26T09:49:31.271Z,36.34
2018-07-26T09:50:31.178Z,35.99
2018-07-26T09:51:31.453Z,36.43
2018-07-26T09:52:31.157Z,37.04
2018-07-26T09:53:31.215Z,36.90
2018-07-26T09:54:31.101Z,37.21
2018-07-26T09:55:31.367Z,37.38
2018-07-26T09:56:31.162Z,37.05
2018-07-26T09:57:31.086Z,36.84
2018-07-26T09:58:31.339Z,36.74
2018-07-26T09:59:31.105Z,37.20
2018-07-26T10:00:31.036Z,37.13
2018-07-26T10:01:31.056Z,36.96
2018-07-26T10:02:31.023Z,36.77
2018-07-26T10:03:31.093Z,36.96
2018-07-26T10:04:31.063Z,36.72
2018-07-26T10:05:30.982Z,37.09
2018-07-26T10:06:31.056Z,37.42
2018-07-26T10:07:30.973Z,37.68
2018-07-26T10:08:30.980Z,37.60
2018-07-26T10:09:30.947Z,37.39
2018-07-26T10:10:30.891Z,37.63
2018-07-26T10:11:31.186Z,37.60
2018-07-26T10:12:30.898Z,37.66
2018-07-26T10:13:31.082Z,37.72
2018-07-26T10:14:30.877Z,37.72
2018-07-26T10:15:30.956Z,37.45
2018-07-26T10:16:30.869Z,37.39
2018-07-26T10:17:30.928Z,36.75
2018-07-26T10:18:30.870Z,36.93
2018-07-26T10:19:30.878Z,37.02
2018-07-26T10:20:30.991Z,37.12
2018-07-26T10:21:30.889Z,36.83
2018-07-26T10:22:30.831Z,36.90
2018-07-26T10:23:30.992Z,36.86
2018-07-26T10:24:33.804Z,37.06
2018-07-26T10:25:31.221Z,37.35
2018-07-26T10:26:30.888Z,37.50
2018-07-26T10:27:32.320Z,37.53
2018-07-26T10:28:32.094Z,37.21
2018-07-26T10:29:42.023Z,37.30
2018-07-26T10:30:31.062Z,37.40
2018-07-26T10:31:52.888Z,37.18
2018-07-26T10:32:30.908Z,37.15
2018-07-26T10:33:30.768Z,37.12
2018-07-26T10:34:31.008Z,37.18
2018-07-26T10:35:30.681Z,37.33
2018-07-26T10:36:30.730Z,37.39
2018-07-26T10:37:31.552Z,37.33
2018-07-26T10:38:30.790Z,37.13
2018-07-26T10:39:30.729Z,36.69
2018-07-26T10:40:30.601Z,37.18
2018-07-26T10:41:30.650Z,37.47
2018-07-26T10:42:30.935Z,37.42
2018-07-26T10:43:30.618Z,37.27
2018-07-26T10:44:30.754Z,37.11
2018-07-26T10:45:30.602Z,37.30
2018-07-26T10:46:30.686Z,37.08
2018-07-26T10:47:30.648Z,36.90
2018-07-26T10:48:30.629Z,37.04
2018-07-26T10:49:30.742Z,37.60
2018-07-26T10:50:30.635Z,37.72
2018-07-26T10:51:30.599Z,37.81
2018-07-26T10:52:30.650Z,38.07
2018-07-26T10:53:30.603Z,38.33
2018-07-26T10:54:30.714Z,38.62
2018-07-26T10:55:30.669Z,38.58
2018-07-26T10:56:30.639Z,38.33
2018-07-26T10:57:30.540Z,38.28
2018-07-26T10:58:30.708Z,38.86
2018-07-26T10:59:30.621Z,38.82
2018-07-26T11:00:30.583Z,37.68
2018-07-26T11:01:30.687Z,36.67
2018-07-26T11:02:30.697Z,36.60
2018-07-26T11:03:30.468Z,36.55
2018-07-26T11:04:31.124Z,36.69
2018-07-26T11:05:30.588Z,37.04
2018-07-26T11:06:30.424Z,37.27
2018-07-26T11:07:30.517Z,37.21
2018-07-26T11:08:30.391Z,37.58
2018-07-26T11:09:30.447Z,37.56
2018-07-26T11:10:30.463Z,37.87
2018-07-26T11:11:30.391Z,37.43
2018-07-26T11:12:30.708Z,36.65
2018-07-26T11:13:30.393Z,37.20
2018-07-26T11:14:30.411Z,37.31
2018-07-26T11:15:30.360Z,37.54
2018-07-26T11:16:30.489Z,37.45
2018-07-26T11:17:30.346Z,36.71
2018-07-26T11:18:30.277Z,35.92
2018-07-26T11:19:30.437Z,35.50
2018-07-26T11:20:30.276Z,35.96
2018-07-26T11:21:30.450Z,36.35
2018-07-26T11:22:30.298Z,37.02
2018-07-26T11:23:30.263Z,37.12
2018-07-26T11:24:30.343Z,37.70
2018-07-26T11:25:30.289Z,38.15
2018-07-26T11:26:30.283Z,38.59
2018-07-26T11:27:30.283Z,39.06
2018-07-26T11:28:30.216Z,38.62
2018-07-26T11:29:30.275Z,38.59
2018-07-26T11:30:30.322Z,38.25
2018-07-26T11:31:30.221Z,38.28
2018-07-26T11:32:30.300Z,38.40
2018-07-26T11:33:30.128Z,38.70
2018-07-26T11:34:30.345Z,38.74
2018-07-26T11:35:30.409Z,38.92
2018-07-26T11:36:30.206Z,37.97
2018-07-26T11:37:30.231Z,37.18
2018-07-26T11:38:30.215Z,36.83
2018-07-26T11:39:30.145Z,36.94
2018-07-26T11:40:30.169Z,37.27
2018-07-26T11:41:30.216Z,37.08
2018-07-26T11:42:30.094Z,37.13
2018-07-26T11:43:30.212Z,37.65
2018-07-26T11:44:30.051Z,37.62
2018-07-26T11:45:30.179Z,38.09
2018-07-26T11:46:30.108Z,38.03
2018-07-26T11:47:30.116Z,38.09
2018-07-26T11:48:30.128Z,37.66
2018-07-26T11:49:30.106Z,37.13
2018-07-26T11:50:30.081Z,37.21
2018-07-26T11:51:30.033Z,37.38
2018-07-26T11:52:30.050Z,37.72
2018-07-26T11:53:30.035Z,37.43
2018-07-26T11:54:29.993Z,37.58
2018-07-26T11:55:30.152Z,37.46
2018-07-26T11:56:29.981Z,37.69
2018-07-26T11:57:30.096Z,36.27
2018-07-26T11:58:29.972Z,36.11
2018-07-26T11:59:30.020Z,36.23
2018-07-26T12:00:29.958Z,36.44
2018-07-26T12:01:29.986Z,36.56
2018-07-26T12:02:29.978Z,36.82
2018-07-26T12:03:29.987Z,36.72
2018-07-26T12:04:29.950Z,36.48
2018-07-26T12:05:29.922Z,36.46
2018-07-26T12:06:29.910Z,36.56
2018-07-26T12:07:29.889Z,36.62
2018-07-26T12:08:29.864Z,36.59
2018-07-26T12:09:29.853Z,36.43
2018-07-26T12:10:29.864Z,37.15
2018-07-26T12:11:29.882Z,37.35
2018-07-26T12:12:30.042Z,37.66
2018-07-26T12:13:29.881Z,37.97
2018-07-26T12:14:29.947Z,38.09
2018-07-26T12:15:29.925Z,38.28
2018-07-26T12:16:29.964Z,38.22
2018-07-26T12:17:29.868Z,38.16
2018-07-26T12:18:29.776Z,38.04
2018-07-26T12:19:29.822Z,38.10
2018-07-26T12:20:29.870Z,38.02
2018-07-26T12:21:29.808Z,37.91
2018-07-26T12:22:29.783Z,37.97
2018-07-26T12:23:29.810Z,38.34
2018-07-26T12:24:29.779Z,38.65
2018-07-26T12:25:29.783Z,38.82
2018-07-26T12:26:29.755Z,38.65
2018-07-26T12:27:29.732Z,38.97
2018-07-26T12:28:29.734Z,38.44
2018-07-26T12:29:29.853Z,37.77
2018-07-26T12:30:29.753Z,37.13
2018-07-26T12:31:29.699Z,36.89
2018-07-26T12:32:29.707Z,37.45
2018-07-26T12:33:29.667Z,38.22
2018-07-26T12:34:29.665Z,38.21
2018-07-26T12:35:29.672Z,38.15
2018-07-26T12:36:29.685Z,37.42
2018-07-26T12:37:29.705Z,37.05
2018-07-26T12:38:29.691Z,37.69
2018-07-26T12:39:29.621Z,37.81
2018-07-26T12:40:29.677Z,37.84
2018-07-26T12:41:29.696Z,37.49
2018-07-26T12:42:29.638Z,37.39
2018-07-26T12:43:29.688Z,37.70
2018-07-26T12:44:29.569Z,38.00
2018-07-26T12:45:29.628Z,37.90
2018-07-26T12:46:29.569Z,37.97
2018-07-26T12:47:29.737Z,37.96
2018-07-26T12:48:29.551Z,38.24
2018-07-26T12:49:30.384Z,38.18
2018-07-26T12:50:47.836Z,38.22
2018-07-26T12:51:29.517Z,38.03
2018-07-26T12:52:29.538Z,37.56
2018-07-26T12:53:29.541Z,37.15
2018-07-26T12:54:29.515Z,37.54
2018-07-26T12:55:29.594Z,37.68
2018-07-26T12:56:29.505Z,37.90
2018-07-26T12:57:29.560Z,37.97
2018-07-26T12:58:29.525Z,37.73
2018-07-26T12:59:29.473Z,37.63
2018-07-26T13:00:34.411Z,37.59
2018-07-26T13:01:29.519Z,37.46
2018-07-26T13:02:29.519Z,37.04
2018-07-26T13:03:29.523Z,36.77
2018-07-26T13:04:29.459Z,36.44
2018-07-26T13:05:29.514Z,36.15
2018-07-26T13:06:30.465Z,36.31
2018-07-26T13:07:30.390Z,35.74
2018-07-26T13:08:29.471Z,35.52
2018-07-26T13:09:29.544Z,35.39
2018-07-26T13:10:29.449Z,35.24
2018-07-26T13:11:29.468Z,35.09
2018-07-26T13:12:29.360Z,34.98
2018-07-26T13:13:29.650Z,34.78
2018-07-26T13:14:29.425Z,34.78
2018-07-26T13:15:29.321Z,34.60
2018-07-26T13:16:29.438Z,34.56
2018-07-26T13:17:29.299Z,34.49
2018-07-26T13:18:29.323Z,34.46
2018-07-26T13:19:29.304Z,34.56
2018-07-26T13:20:29.338Z,34.53
2018-07-26T13:21:29.340Z,34.52
2018-07-26T13:22:29.378Z,34.31
2018-07-26T13:23:29.272Z,34.43
2018-07-26T13:24:29.433Z,34.31
2018-07-26T13:25:29.236Z,34.31
2018-07-26T13:26:29.228Z,34.28
2018-07-26T13:27:29.293Z,34.30
2018-07-26T13:28:29.269Z,34.40
2018-07-26T13:29:29.210Z,34.34
2018-07-26T13:30:29.204Z,34.43
2018-07-26T13:31:29.240Z,34.36
2018-07-26T13:32:29.184Z,34.33
2018-07-26T13:33:29.219Z,34.28
2018-07-26T13:34:29.175Z,34.36
2018-07-26T13:35:29.196Z,34.19
2018-07-26T13:36:29.267Z,34.27
2018-07-26T13:37:29.115Z,34.26
2018-07-26T13:38:29.307Z,34.23
2018-07-26T13:39:29.110Z,34.11
2018-07-26T13:40:29.184Z,34.14
2018-07-26T13:41:29.091Z,33.99
2018-07-26T13:42:29.096Z,33.94
2018-07-26T13:43:29.032Z,33.99
2018-07-26T13:44:29.103Z,33.87
2018-07-26T13:45:29.050Z,33.92
2018-07-26T13:46:29.072Z,34.08
2018-07-26T13:47:29.040Z,34.09
2018-07-26T13:48:29.089Z,34.14
2018-07-26T13:49:29.016Z,33.96
2018-07-26T13:50:29.000Z,34.03
2018-07-26T13:51:29.050Z,34.03
2018-07-26T13:52:29.090Z,34.14
2018-07-26T13:53:29.064Z,34.19
2018-07-26T13:54:29.059Z,34.23
2018-07-26T13:55:28.986Z,34.34
2018-07-26T13:56:28.916Z,34.30
2018-07-26T13:57:28.926Z,34.19
2018-07-26T13:58:28.981Z,34.15
2018-07-26T13:59:28.921Z,34.19
2018-07-26T14:00:28.879Z,34.27
2018-07-26T14:01:28.901Z,34.12
2018-07-26T14:02:28.913Z,34.26
2018-07-26T14:03:28.888Z,34.16
2018-07-26T14:04:28.952Z,34.09
2018-07-26T14:05:28.962Z,34.14
2018-07-26T14:06:28.840Z,34.11
2018-07-26T14:07:28.874Z,34.08
2018-07-26T14:08:28.831Z,34.05
2018-07-26T14:09:28.811Z,34.05
2018-07-26T14:10:28.785Z,34.09
2018-07-26T14:11:28.752Z,34.09
2018-07-26T14:12:28.875Z,34.08
2018-07-26T14:13:28.799Z,34.09
2018-07-26T14:14:31.453Z,34.03
2018-07-26T14:15:28.739Z,34.16
2018-07-26T14:16:28.793Z,34.05
2018-07-26T14:17:28.785Z,33.99
2018-07-26T14:18:28.766Z,33.97
2018-07-26T14:19:28.679Z,33.93
2018-07-26T14:20:28.744Z,33.93
2018-07-26T14:21:28.761Z,33.93
2018-07-26T14:22:28.802Z,33.99
2018-07-26T14:23:28.720Z,34.14
2018-07-26T14:24:28.735Z,34.18
2018-07-26T14:25:28.709Z,34.19
2018-07-26T14:26:28.694Z,34.11
2018-07-26T14:27:28.725Z,34.03
2018-07-26T14:28:28.625Z,33.94
2018-07-26T14:29:28.721Z,33.86
2018-07-26T14:30:28.679Z,33.96
2018-07-26T14:31:28.602Z,34.01
2018-07-26T14:32:28.574Z,33.96
2018-07-26T14:33:28.620Z,33.92
2018-07-26T14:34:28.664Z,33.93
2018-07-26T14:35:28.566Z,33.72
2018-07-26T14:36:28.601Z,33.59
2018-07-26T14:37:28.538Z,33.62
2018-07-26T14:38:28.536Z,33.79
2018-07-26T14:39:28.455Z,33.90
2018-07-26T14:40:28.540Z,33.93
2018-07-26T14:41:28.453Z,34.01
2018-07-26T14:42:28.536Z,34.00
2018-07-26T14:43:28.505Z,33.94
2018-07-26T14:44:28.437Z,33.94
2018-07-26T14:45:28.446Z,33.99
2018-07-26T14:46:28.449Z,33.87
2018-07-26T14:47:28.474Z,33.92
2018-07-26T14:48:28.448Z,33.90
2018-07-26T14:49:28.422Z,34.00
2018-07-26T14:50:28.507Z,34.05
2018-07-26T14:51:28.365Z,34.06
2018-07-26T14:52:28.370Z,34.12
2018-07-26T14:53:28.485Z,34.15
2018-07-26T14:54:28.422Z,34.14
2018-07-26T14:55:28.335Z,34.18
2018-07-26T14:56:28.331Z,34.15
2018-07-26T14:57:28.348Z,34.14
2018-07-26T14:58:28.335Z,33.99
2018-07-26T14:59:29.378Z,33.90
2018-07-26T15:00:28.307Z,33.93
2018-07-26T15:01:28.332Z,33.79
2018-07-26T15:02:28.273Z,33.86
2018-07-26T15:03:28.320Z,33.84
2018-07-26T15:04:28.280Z,33.93
2018-07-26T15:05:28.221Z,33.97
2018-07-26T15:06:28.298Z,34.00
2018-07-26T15:07:28.288Z,33.90
2018-07-26T15:08:28.268Z,34.09
2018-07-26T15:09:28.297Z,34.12
2018-07-26T15:10:28.250Z,34.08
2018-07-26T15:11:28.233Z,34.03
2018-07-26T15:12:28.194Z,33.97
2018-07-26T15:13:28.166Z,33.89
2018-07-26T15:14:28.227Z,33.74
2018-07-26T15:15:28.141Z,33.79
2018-07-26T15:16:28.102Z,33.75
2018-07-26T15:17:28.074Z,33.81
2018-07-26T15:18:28.199Z,33.72
2018-07-26T15:19:28.126Z,33.79
2018-07-26T15:20:28.084Z,33.87
2018-07-26T15:21:28.073Z,33.86
2018-07-26T15:22:28.077Z,33.81
2018-07-26T15:23:28.089Z,33.68
2018-07-26T15:24:28.127Z,33.68
2018-07-26T15:25:28.052Z,33.66
2018-07-26T15:26:28.052Z,33.63
2018-07-26T15:27:27.977Z,33.60
2018-07-26T15:28:28.025Z,33.68
2018-07-26T15:29:28.031Z,33.56
2018-07-26T15:30:27.987Z,33.59
2018-07-26T15:31:27.998Z,33.52
2018-07-26T15:32:28.036Z,33.59
2018-07-26T15:33:27.969Z,33.55
2018-07-26T15:34:27.914Z,33.68
2018-07-26T15:35:27.935Z,33.53
2018-07-26T15:36:27.934Z,33.63
2018-07-26T15:37:27.929Z,33.65
2018-07-26T15:38:27.879Z,33.63
2018-07-26T15:39:27.918Z,33.71
2018-07-26T15:40:27.874Z,33.75
2018-07-26T15:41:27.935Z,33.66
2018-07-26T15:42:27.847Z,33.71
2018-07-26T15:43:27.878Z,33.70
2018-07-26T15:44:27.891Z,33.66
2018-07-26T15:45:27.891Z,33.63
2018-07-26T15:46:27.799Z,33.62
2018-07-26T15:47:27.802Z,33.66
2018-07-26T15:48:27.760Z,33.74
2018-07-26T15:49:27.857Z,33.65
2018-07-26T15:50:27.812Z,33.65
2018-07-26T15:51:27.797Z,33.50
2018-07-26T15:52:27.734Z,33.38
2018-07-26T15:53:27.766Z,33.28
2018-07-26T15:54:27.775Z,33.40
2018-07-26T15:55:27.703Z,33.55
2018-07-26T15:56:27.760Z,33.62
2018-07-26T15:57:27.728Z,33.59
2018-07-26T15:58:27.737Z,33.63
2018-07-26T15:59:27.697Z,33.55
2018-07-26T16:00:27.641Z,33.59
2018-07-26T16:01:27.726Z,33.53
2018-07-26T16:02:27.708Z,33.41
2018-07-26T16:03:27.680Z,33.38
2018-07-26T16:04:27.685Z,33.29
2018-07-26T16:05:27.619Z,33.34
2018-07-26T16:06:27.621Z,33.34
2018-07-26T16:07:27.718Z,33.40
2018-07-26T16:08:27.619Z,33.45
2018-07-26T16:09:27.559Z,33.35
2018-07-26T16:10:27.583Z,33.33
2018-07-26T16:11:27.591Z,33.24
2018-07-26T16:12:27.581Z,33.29
2018-07-26T16:13:27.525Z,33.18
2018-07-26T16:14:27.525Z,33.22
2018-07-26T16:15:27.559Z,33.06
2018-07-26T16:16:27.486Z,33.11
2018-07-26T16:17:27.541Z,33.15
2018-07-26T16:18:28.475Z,33.22
2018-07-26T16:19:27.959Z,33.14
2018-07-26T16:20:28.536Z,33.11
2018-07-26T16:21:27.462Z,33.07
2018-07-26T16:22:27.500Z,33.09
2018-07-26T16:23:27.508Z,33.00
2018-07-26T16:24:27.468Z,32.91
2018-07-26T16:25:27.432Z,32.87
2018-07-26T16:26:27.522Z,33.02
2018-07-26T16:27:27.394Z,33.11
2018-07-26T16:28:27.388Z,33.07
2018-07-26T16:29:27.362Z,33.05
2018-07-26T16:30:27.373Z,33.07
2018-07-26T16:31:27.375Z,33.12
2018-07-26T16:32:27.333Z,33.12
2018-07-26T16:33:27.316Z,33.15
2018-07-26T16:34:27.323Z,33.18
2018-07-26T16:35:27.319Z,33.14
2018-07-26T16:36:27.285Z,33.06
2018-07-26T16:37:27.267Z,33.02
2018-07-26T16:38:27.343Z,33.03
2018-07-26T16:39:27.258Z,33.06
2018-07-26T16:40:27.287Z,33.05
2018-07-26T16:41:27.249Z,33.06
2018-07-26T16:42:27.237Z,33.02
2018-07-26T16:43:27.231Z,33.03
2018-07-26T16:44:27.193Z,32.98
2018-07-26T16:45:27.302Z,32.91
2018-07-26T16:46:27.244Z,32.81
2018-07-26T16:47:27.216Z,32.80
2018-07-26T16:48:29.080Z,32.88
2018-07-26T16:49:27.134Z,32.91
2018-07-26T16:50:27.204Z,32.99
2018-07-26T16:51:27.106Z,32.93
2018-07-26T16:52:28.115Z,32.93
2018-07-26T16:53:27.129Z,32.96
2018-07-26T16:54:27.139Z,33.03
2018-07-26T16:55:27.070Z,32.93